Airfield :
LOGIN :

Register | Disclaimer

   EN    FR    IT 

 










Legend :    VFR   Marginal VFR   IFR   Intensive IFR   Very Intensive IFR
Visi :
Ceiling :
>= 8 km
>= 3000ft
5 to 8 km
1000 to 3000 ft
1500m to 5 km
500 to 1000 ft
800 to 1500m
200 to 500 ft
< 800m
< 200 ft
Symbols :   Thunderstorms  Fog  Heavy snow  Heavy precipitations  Wind > 20 kt
SIGMETs :     Misc.  Thunderstorms  Icing  Turbulence  Mountain Waves  Volcanic Ashes







- Airport Elevation : 479 ft
- IATA code : DOL
- Download approach charts


LFRG - Deauville

CURRENT METAR :
  • 171400Z AUTO 01010KT 330V060 CAVOK 20/12 Q1023 NOSIG

EXPIRED METARs :
  • 171330Z AUTO 01008KT 310V050 9999 FEW030 20/12 Q1023 NOSIG
  • 171300Z AUTO 01009KT 340V050 9999 FEW028 19/12 Q1023 NOSIG
  • 171230Z AUTO 02010KT 330V050 9999 SCT027 19/13 Q1024 NOSIG
  • 171200Z AUTO 02007KT 320V070 9999 BKN025 19/13 Q1024 NOSIG
  • 171130Z AUTO 02007KT 340V080 9999 FEW021 19/14 Q1024 NOSIG

TAF TAF LFRG
Valid from the 17 at 12:00 until the 17 at 21:00 UTC


171100Z 1712/1721 02010KT 9999 BKN025
PROB30
TEMPO 1716/1721 03015G25KT
ATIS : +33 2 31 65 65 36
No reported NOTAMs for that airfield.



MET'MAP, your aeronautical weather chart ! - Copyright ORBIFLY December 2007 - Disclaimer

ORBIFLY MET'MAP TEAM :

Programming & Development : Alexandra Zaïnal
Concept & Development : Baudouin d'Aumeries
Co-Development & Prog : Marc-Olivier Méhu
Technical & hardware support : Manuel Goepfert

Contact : metmap@orbifly.com




SOURCES & CREDITS :

   NOAA